Time;durP1;ratioP1;P1;durP2;ratioP2;P2;SDS_P1;SDS_P2;PMS_P1;PMS_P2;Temp;Humidity;BMP_temperature;BMP_pressure;BME280_temperature;BME280_humidity;BME280_pressure;Samples;Min_cycle;Max_cycle;Signal;HPM_P1;HPM_P2
2021/06/13 05:09:20;;;;;;;7.43;4.67;;;;;;;19.78;63.73;99730.09;125268;1102;104267;-77
2021/06/13 05:11:51;;;;;;;9.97;5.20;;;;;;;19.82;63.11;99723.80;125022;1102;104142;-79
2021/06/13 05:14:22;;;;;;;6.80;5.13;;;;;;;19.86;63.72;99714.88;125004;1102;104156;-78
2021/06/13 05:16:53;;;;;;;10.60;5.17;;;;;;;19.90;63.69;99703.30;125028;1102;104146;-77
2021/06/13 05:19:24;;;;;;;11.57;4.87;;;;;;;19.95;63.04;99716.54;124944;1102;104185;-77
2021/06/13 05:21:55;;;;;;;8.60;4.70;;;;;;;19.99;63.35;99710.24;125027;1102;104165;-78
2021/06/13 05:24:26;;;;;;;7.70;4.83;;;;;;;20.02;64.11;99708.41;125004;1103;104252;-78
2021/06/13 05:26:57;;;;;;;7.73;4.87;;;;;;;20.05;63.28;99705.69;125021;1102;104240;-76
2021/06/13 05:29:30;;;;;;;9.60;4.67;;;;;;;20.09;63.64;99701.22;124955;1102;105633;-78
2021/06/13 05:32:00;;;;;;;7.87;4.70;;;;;;;20.15;63.93;99697.55;125010;1102;104233;-76
2021/06/13 05:34:32;;;;;;;8.87;4.60;;;;;;;20.19;63.19;99701.94;124994;1102;104143;-77
2021/06/13 05:37:03;;;;;;;9.97;4.93;;;;;;;20.23;62.90;99698.33;124996;1102;104175;-77
2021/06/13 05:39:34;;;;;;;8.37;4.40;;;;;;;20.28;63.33;99705.32;125003;1102;105101;-78
2021/06/13 05:42:05;;;;;;;8.90;5.00;;;;;;;20.34;62.78;99706.15;124992;1102;104166;-77
2021/06/13 05:44:36;;;;;;;7.20;4.57;;;;;;;20.37;63.83;99703.43;124971;1102;104357;-76
2021/06/13 05:47:06;;;;;;;7.90;4.50;;;;;;;20.43;63.59;99695.34;125028;1102;104183;-76
2021/06/13 05:49:37;;;;;;;7.97;4.80;;;;;;;20.47;62.88;99695.25;124941;1102;104152;-77
2021/06/13 05:52:08;;;;;;;5.57;4.37;;;;;;;20.52;62.89;99696.94;125013;1102;104239;-77
2021/06/13 05:54:39;;;;;;;6.80;4.43;;;;;;;20.57;62.74;99684.40;124999;1102;104172;-78
2021/06/13 05:57:10;;;;;;;8.87;4.60;;;;;;;20.62;62.87;99686.08;124997;1102;104248;-76
2021/06/13 05:59:41;;;;;;;7.23;4.27;;;;;;;20.68;62.99;99677.14;124984;1101;104185;-76
2021/06/13 06:02:12;;;;;;;8.37;4.33;;;;;;;20.73;63.42;99677.92;124952;1102;104191;-77
2021/06/13 06:04:43;;;;;;;9.47;4.63;;;;;;;20.81;62.84;99675.98;124995;1102;104134;-77
2021/06/13 06:07:13;;;;;;;7.97;4.37;;;;;;;20.86;63.15;99675.02;125012;1102;104172;-77
2021/06/13 06:09:44;;;;;;;5.67;4.17;;;;;;;20.90;63.08;99672.27;124850;1102;104564;-77
2021/06/13 06:12:15;;;;;;;9.83;4.53;;;;;;;20.95;62.80;99667.70;124815;1102;104175;-77
2021/06/13 06:14:47;;;;;;;7.50;4.50;;;;;;;21.00;63.28;99663.18;124815;1102;104216;-77
2021/06/13 06:17:18;;;;;;;7.17;4.50;;;;;;;21.05;61.91;99660.42;124927;1102;104201;-77
2021/06/13 06:19:49;;;;;;;6.20;4.20;;;;;;;21.10;63.05;99657.63;124923;1102;104155;-77
2021/06/13 06:22:20;;;;;;;7.37;4.20;;;;;;;21.15;63.03;99653.09;124963;1102;104169;-78
2021/06/13 06:24:51;;;;;;;7.33;3.80;;;;;;;21.22;62.10;99652.03;124997;1102;101661;-78
2021/06/13 06:27:22;;;;;;;9.73;4.33;;;;;;;21.29;62.52;99655.47;125000;1102;104149;-77
2021/06/13 06:29:54;;;;;;;8.10;4.30;;;;;;;21.34;61.74;99658.91;125542;1093;104239;-74
2021/06/13 06:32:24;;;;;;;6.13;4.40;;;;;;;21.40;61.73;99658.77;125008;1102;104188;-77
2021/06/13 06:34:56;;;;;;;7.23;4.30;;;;;;;21.47;62.31;99656.83;124945;1102;104229;-77
2021/06/13 06:37:27;;;;;;;6.30;4.30;;;;;;;21.54;61.66;99656.69;125017;1102;104271;-77
2021/06/13 06:39:57;;;;;;;4.83;3.70;;;;;;;21.65;62.38;99656.45;124952;1102;104630;-77
2021/06/13 06:42:28;;;;;;;7.67;4.50;;;;;;;21.73;61.22;99654.47;125023;1102;104245;-77
2021/06/13 06:44:58;;;;;;;7.10;3.90;;;;;;;21.82;61.92;99649.84;125012;1102;104229;-77
2021/06/13 06:47:29;;;;;;;8.95;4.25;;;;;;;21.93;60.97;99649.59;124982;1102;104245;-76
2021/06/13 06:50:00;;;;;;;9.43;4.10;;;;;;;22.05;61.94;99654.62;124956;1102;105604;-77
2021/06/13 06:52:30;;;;;;;6.03;3.60;;;;;;;22.16;61.22;99657.00;125004;1102;104216;-77
2021/06/13 06:55:01;;;;;;;8.70;3.90;;;;;;;22.29;60.97;99653.11;125052;1105;104271;-78
2021/06/13 06:57:32;;;;;;;6.13;4.23;;;;;;;22.40;60.94;99648.38;124999;1102;104165;-78
2021/06/13 07:00:03;;;;;;;6.47;4.10;;;;;;;22.52;61.33;99644.52;124934;1103;104306;-78
2021/06/13 07:02:34;;;;;;;7.40;4.27;;;;;;;22.68;61.48;99644.10;125015;1102;104299;-77
2021/06/13 07:05:05;;;;;;;6.40;4.10;;;;;;;22.86;61.42;99638.23;124990;1102;104185;-79
2021/06/13 07:07:36;;;;;;;6.20;4.20;;;;;;;23.01;60.59;99644.92;125011;1105;104149;-77
2021/06/13 07:10:09;;;;;;;5.97;4.10;;;;;;;23.18;60.58;99649.81;124938;1103;104335;-77
2021/06/13 07:12:40;;;;;;;6.97;3.93;;;;;;;23.31;60.38;99645.86;124977;1105;104175;-76
2021/06/13 07:15:11;;;;;;;7.07;4.30;;;;;;;23.47;60.06;99645.39;125010;1105;104158;-78
2021/06/13 07:17:42;;;;;;;4.67;3.80;;;;;;;23.66;59.87;99635.84;125015;1102;104708;-78
2021/06/13 07:20:15;;;;;;;8.07;4.00;;;;;;;23.86;59.75;99631.69;124955;1102;104153;-77
2021/06/13 07:22:46;;;;;;;7.00;3.80;;;;;;;24.06;59.25;99636.39;125035;1102;104287;-77
2021/06/13 07:25:17;;;;;;;5.57;3.70;;;;;;;24.33;59.29;99634.55;125202;1102;104334;-77
2021/06/13 07:27:47;;;;;;;7.17;4.23;;;;;;;24.58;59.26;99636.41;125052;1102;104613;-77
2021/06/13 07:30:20;;;;;;;7.20;4.10;;;;;;;24.86;58.44;99632.72;125141;1102;104200;-76
2021/06/13 07:32:51;;;;;;;5.60;4.00;;;;;;;25.10;58.31;99634.48;125310;1102;104290;-76
2021/06/13 07:35:22;;;;;;;7.30;4.17;;;;;;;25.38;58.33;99641.48;125222;1102;104146;-77
2021/06/13 07:37:52;;;;;;;4.87;3.80;;;;;;;25.65;57.93;99634.16;125169;1102;104358;-77
2021/06/13 07:40:23;;;;;;;6.80;3.80;;;;;;;25.89;57.19;99635.91;125136;1102;104258;-77
2021/06/13 07:42:54;;;;;;;6.80;3.90;;;;;;;26.01;56.70;99638.12;125007;1102;104232;-77
2021/06/13 07:45:25;;;;;;;5.27;3.90;;;;;;;26.09;56.35;99637.80;125105;1102;104143;-77
2021/06/13 07:47:56;;;;;;;5.30;3.93;;;;;;;26.17;55.76;99636.52;125076;1102;104367;-79
2021/06/13 07:50:27;;;;;;;5.83;3.70;;;;;;;26.21;55.76;99642.66;125187;1102;105640;-77
2021/06/13 07:52:58;;;;;;;6.70;3.70;;;;;;;26.23;55.58;99637.22;125175;1102;104195;-76
2021/06/13 07:55:28;;;;;;;5.77;3.57;;;;;;;26.31;54.77;99638.61;125067;1102;104159;-77
2021/06/13 07:57:59;;;;;;;7.60;4.00;;;;;;;26.31;55.37;99635.06;125188;1102;104140;-76
2021/06/13 08:00:30;;;;;;;9.03;3.90;;;;;;;26.35;54.62;99631.28;125160;1101;104191;-77
2021/06/13 08:03:00;;;;;;;7.30;3.87;;;;;;;26.39;54.70;99635.59;124985;1102;107061;-77
2021/06/13 08:05:31;;;;;;;6.45;3.70;;;;;;;26.42;54.43;99632.77;125043;1102;104287;-78
2021/06/13 08:08:05;;;;;;;4.73;3.73;;;;;;;26.42;54.09;99638.16;125162;1102;104143;-77
2021/06/13 08:10:39;;;;;;;5.87;3.77;;;;;;;26.41;54.29;99631.02;125040;1102;104149;-77
2021/06/13 08:13:10;;;;;;;5.97;4.03;;;;;;;26.39;53.89;99642.80;125195;1102;104134;-77
2021/06/13 08:15:41;;;;;;;5.20;3.57;;;;;;;26.38;54.11;99633.84;125140;1102;104294;-77
2021/06/13 08:18:13;;;;;;;5.93;3.70;;;;;;;26.31;53.50;99641.30;125147;1102;104665;-78
2021/06/13 08:20:43;;;;;;;18.50;4.63;;;;;;;26.24;53.64;99644.32;125276;1102;104168;-78
2021/06/13 08:23:14;;;;;;;9.30;3.73;;;;;;;26.11;53.86;99642.15;125026;1103;104201;-76
2021/06/13 08:25:45;;;;;;;6.37;4.00;;;;;;;26.01;53.70;99630.05;125206;1102;104149;-77
2021/06/13 08:28:15;;;;;;;4.67;3.70;;;;;;;25.93;53.37;99637.51;125147;1102;104280;-77
2021/06/13 08:30:46;;;;;;;6.67;3.80;;;;;;;25.84;53.46;99639.64;125150;1102;104133;-77
2021/06/13 08:33:17;;;;;;;7.33;3.50;;;;;;;25.74;52.96;99632.92;125134;1102;105910;-78
2021/06/13 08:35:48;;;;;;;6.17;3.97;;;;;;;25.62;52.91;99639.65;125231;1102;104233;-78
2021/06/13 08:38:20;;;;;;;6.27;3.87;;;;;;;25.53;52.87;99636.47;125192;1102;104184;-78
2021/06/13 08:40:52;;;;;;;6.08;4.10;;;;;;;25.48;53.22;99637.52;125199;1102;104306;-77
2021/06/13 08:43:23;;;;;;;4.50;3.87;;;;;;;25.50;52.48;99641.96;124955;1102;104287;-77
2021/06/13 08:45:58;;;;;;;7.93;3.60;;;;;;;25.58;52.59;99642.52;125170;1102;104252;-78
2021/06/13 08:48:32;;;;;;;5.10;3.67;;;;;;;25.66;52.38;99637.70;125183;1102;104233;-77
2021/06/13 08:51:03;;;;;;;4.67;3.87;;;;;;;25.76;52.30;99643.61;125171;1102;104162;-77
2021/06/13 08:53:34;;;;;;;6.87;3.70;;;;;;;25.82;52.02;99638.84;124975;1102;104325;-77
2021/06/13 08:56:05;;;;;;;6.37;3.90;;;;;;;25.86;52.46;99636.03;125205;1102;104457;-78
2021/06/13 08:58:36;;;;;;;8.90;4.20;;;;;;;25.90;52.35;99634.95;125207;1102;104172;-76
2021/06/13 09:01:10;;;;;;;6.37;4.20;;;;;;;25.95;52.47;99635.66;125180;1102;104249;-78
2021/06/13 09:03:42;;;;;;;7.40;4.27;;;;;;;25.99;51.66;99642.66;125160;1102;104156;-77
2021/06/13 09:06:13;;;;;;;12.73;4.20;;;;;;;25.99;51.23;99645.35;125166;1102;104300;-77
2021/06/13 09:08:48;;;;;;;8.10;4.63;;;;;;;25.73;51.31;99654.47;125182;1102;104153;-78
2021/06/13 09:11:29;;;;;;;12.00;5.00;;;;;;;25.30;51.04;99681.19;125102;1102;104159;-76
2021/06/13 09:14:13;;;;;;;8.33;4.63;;;;;;;24.74;50.67;99707.36;125165;1102;105473;-77
2021/06/13 09:16:47;;;;;;;10.97;4.33;;;;;;;24.19;50.78;99726.16;125212;1102;104165;-77
2021/06/13 09:19:18;;;;;;;16.40;5.30;;;;;;;23.63;50.66;99718.95;125194;1102;104147;-78
2021/06/13 09:21:49;;;;;;;11.60;4.40;;;;;;;23.04;51.02;99742.96;125191;1102;104203;-76
2021/06/13 09:24:23;;;;;;;8.03;4.40;;;;;;;22.66;51.51;99759.13;125141;1102;104174;-78
2021/06/13 09:26:56;;;;;;;7.33;4.17;;;;;;;22.31;51.39;99773.36;125191;1101;104179;-78
2021/06/13 09:29:46;;;;;;;8.43;4.30;;;;;;;21.95;52.06;99798.19;125175;1102;104145;-78
2021/06/13 09:32:17;;;;;;;8.90;4.40;;;;;;;21.59;52.81;99797.20;125001;1103;104188;-77
2021/06/13 09:35:07;;;;;;;10.37;4.80;;;;;;;21.36;52.60;99803.83;125012;1101;104176;-77
2021/06/13 09:37:58;;;;;;;12.10;3.50;;;;;;;20.95;55.13;99801.05;125050;1102;104152;-77
2021/06/13 09:40:29;;;;;;;7.67;3.33;;;;;;;20.58;54.29;99774.98;125029;1102;104312;-76
2021/06/13 09:43:10;;;;;;;9.20;2.77;;;;;;;20.41;55.76;99782.38;124943;1102;105385;-77
2021/06/13 09:45:45;;;;;;;4.20;2.13;;;;;;;20.17;54.75;99781.00;124974;1102;104246;-77
2021/06/13 09:48:17;;;;;;;5.83;2.20;;;;;;;19.87;56.60;99778.75;124993;1102;104207;-77
2021/06/13 09:50:50;;;;;;;2.43;1.53;;;;;;;19.55;57.68;99774.69;124988;1102;104296;-77
2021/06/13 09:53:27;;;;;;;5.08;1.52;;;;;;;19.19;57.81;99782.21;124985;1102;102919;-77
2021/06/13 09:56:17;;;;;;;5.77;1.67;;;;;;;18.81;60.54;99801.20;124988;1102;104175;-76
2021/06/13 09:58:57;;;;;;;7.53;1.80;;;;;;;18.25;59.23;99814.91;125098;1102;104188;-77
2021/06/13 10:01:35;;;;;;;2.83;1.57;;;;;;;17.84;59.89;99813.36;125215;1102;104319;-77
2021/06/13 10:04:08;;;;;;;3.63;1.30;;;;;;;17.50;60.37;99816.15;125030;1102;104172;-77
2021/06/13 10:06:39;;;;;;;2.17;1.27;;;;;;;17.35;61.96;99821.50;125009;1102;104147;-77
2021/06/13 10:09:10;;;;;;;2.30;1.20;;;;;;;17.34;63.68;99830.33;125008;1102;104194;-77
2021/06/13 10:11:42;;;;;;;2.13;1.40;;;;;;;17.28;63.30;99833.90;124933;1102;104184;-77
2021/06/13 10:14:16;;;;;;;3.53;1.23;;;;;;;17.25;64.33;99826.83;124996;1102;104171;-79
2021/06/13 10:16:51;;;;;;;4.40;1.27;;;;;;;17.21;64.35;99822.41;125212;1102;104217;-78
2021/06/13 10:19:23;;;;;;;1.23;1.07;;;;;;;17.21;65.03;99803.84;124985;1102;104179;-77
2021/06/13 10:21:57;;;;;;;3.73;1.40;;;;;;;17.28;64.00;99814.44;125222;1102;104318;-78
2021/06/13 10:24:30;;;;;;;3.17;1.30;;;;;;;17.43;64.27;99825.00;124932;1102;104133;-78
2021/06/13 10:27:03;;;;;;;3.60;1.30;;;;;;;17.55;64.49;99813.48;125024;1102;104184;-78
2021/06/13 10:29:36;;;;;;;1.47;1.30;;;;;;;17.61;66.09;99834.68;124954;1102;104142;-78
2021/06/13 10:32:10;;;;;;;1.37;1.27;;;;;;;17.58;64.98;99840.87;125191;1102;104185;-77
2021/06/13 10:34:39;;;;;;;;;;;;;;;17.55;66.38;99846.19;125020;1102;104255;-76
2021/06/13 10:37:13;;;;;;;1.43;1.10;;;;;;;17.53;65.17;99841.76;125181;1102;104412;-77
2021/06/13 10:39:44;;;;;;;1.50;1.00;;;;;;;17.57;65.75;99859.44;125202;1102;104130;-77
2021/06/13 10:42:17;;;;;;;2.20;1.10;;;;;;;17.51;65.48;99873.59;125122;1102;104142;-77
2021/06/13 10:44:50;;;;;;;1.47;1.30;;;;;;;17.47;65.41;99863.90;125126;1102;104627;-78
2021/06/13 10:47:22;;;;;;;1.40;1.30;;;;;;;17.56;65.91;99862.97;125223;1102;104214;-77
2021/06/13 10:50:04;;;;;;;3.93;1.40;;;;;;;17.54;65.88;99870.94;125005;1102;104301;-77
2021/06/13 10:52:35;;;;;;;1.60;1.17;;;;;;;17.52;66.00;99878.02;125163;1102;104152;-78
2021/06/13 10:55:08;;;;;;;2.43;1.50;;;;;;;17.48;65.69;99880.69;125111;1102;104137;-78
2021/06/13 10:57:46;;;;;;;3.90;1.90;;;;;;;17.45;65.89;99884.22;125229;1102;104140;-76
2021/06/13 11:00:30;;;;;;;1.83;1.50;;;;;;;17.41;66.27;99885.13;125150;1102;104227;-78
2021/06/13 11:03:01;;;;;;;4.20;2.20;;;;;;;17.38;66.44;99887.79;125038;1102;104246;-77
2021/06/13 11:05:47;;;;;;;4.33;2.23;;;;;;;17.40;66.81;99884.23;125133;1102;105473;-77
2021/06/13 11:08:19;;;;;;;3.13;1.90;;;;;;;17.40;66.60;99891.31;125166;1102;104172;-77
2021/06/13 11:10:49;;;;;;;4.33;1.93;;;;;;;17.32;67.33;99885.14;125172;1101;104208;-77
2021/06/13 11:13:31;;;;;;;1.83;1.73;;;;;;;17.17;67.31;99881.64;125160;1102;104232;-77
2021/06/13 11:16:14;;;;;;;3.20;1.67;;;;;;;17.06;67.56;99872.79;125160;1102;104408;-75
2021/06/13 11:18:45;;;;;;;6.00;1.77;;;;;;;16.97;68.14;99880.74;125011;1102;105259;-75
2021/06/13 11:21:23;;;;;;;1.90;1.60;;;;;;;16.91;68.08;99872.80;125155;1102;104462;-77
2021/06/13 11:23:57;;;;;;;2.57;1.80;;;;;;;16.94;68.25;99883.39;125142;1101;104267;-77
2021/06/13 11:26:36;;;;;;;3.10;2.10;;;;;;;16.98;68.19;99882.52;125094;1102;104171;-77
2021/06/13 11:29:09;;;;;;;2.20;1.40;;;;;;;16.98;67.67;99906.38;125228;1102;104293;-77
2021/06/13 11:31:51;;;;;;;4.60;1.72;;;;;;;16.98;68.27;99885.17;125193;1102;104155;-77
2021/06/13 11:34:23;;;;;;;1.33;1.23;;;;;;;17.01;68.79;99879.87;125103;1102;104162;-77
2021/06/13 11:36:54;;;;;;;4.10;1.60;;;;;;;17.00;68.56;99871.05;125165;1102;104158;-76
2021/06/13 11:39:28;;;;;;;3.53;1.60;;;;;;;16.98;68.41;99863.97;125157;1102;104144;-77
2021/06/13 11:42:10;;;;;;;1.52;1.42;;;;;;;16.92;69.52;99859.55;125275;1102;104156;-78
2021/06/13 11:44:45;;;;;;;2.00;1.70;;;;;;;16.96;69.14;99863.09;125250;1102;104152;-77
2021/06/13 11:47:38;;;;;;;2.90;1.73;;;;;;;16.96;69.06;99886.95;125231;1102;110703;-77
2021/06/13 11:50:13;;;;;;;3.17;2.00;;;;;;;16.93;69.42;99889.59;125041;1102;104198;-77
2021/06/13 11:53:00;;;;;;;2.10;1.90;;;;;;;16.89;69.11;99889.59;125204;1102;104610;-77
2021/06/13 11:56:02;;;;;;;3.13;1.80;;;;;;;16.86;69.46;99899.29;125162;1102;104150;-77
2021/06/13 11:58:35;;;;;;;3.10;2.50;;;;;;;16.80;69.49;99889.56;125227;1102;104204;-75
2021/06/13 12:01:06;;;;;;;3.77;2.08;;;;;;;16.78;69.80;99890.43;125219;1101;104601;-77
2021/06/13 12:03:40;;;;;;;3.87;2.20;;;;;;;16.73;69.80;99887.78;125242;1101;104277;-77
2021/06/13 12:06:20;;;;;;;3.03;1.80;;;;;;;16.74;69.97;99881.61;125148;1102;104312;-77
2021/06/13 12:08:53;;;;;;;2.97;1.83;;;;;;;16.70;69.66;99883.38;125149;1102;104287;-77
2021/06/13 12:11:37;;;;;;;6.50;2.25;;;;;;;16.70;70.04;99885.13;125177;1102;104155;-77
2021/06/13 12:14:30;;;;;;;2.70;2.20;;;;;;;16.69;69.60;99883.38;125222;1102;104166;-77
2021/06/13 12:17:04;;;;;;;3.47;2.13;;;;;;;16.74;70.05;99884.26;125029;1103;104149;-78
2021/06/13 12:19:40;;;;;;;2.40;2.00;;;;;;;16.79;70.47;99878.96;125184;1102;104220;-77
2021/06/13 12:22:29;;;;;;;2.67;1.80;;;;;;;16.80;70.66;99878.97;125209;1102;104176;-77
2021/06/13 12:27:48;;;;;;;3.37;2.03;;;;;;;16.89;70.36;99875.45;125154;1102;104236;-78
2021/06/13 12:30:21;;;;;;;2.62;2.10;;;;;;;16.93;70.43;99881.65;125159;1102;104153;-77
2021/06/13 12:32:58;;;;;;;3.02;2.50;;;;;;;16.97;70.42;99888.70;125216;1102;104196;-78
2021/06/13 12:35:31;;;;;;;4.03;2.00;;;;;;;17.06;70.25;99883.39;125192;1102;104390;-78
2021/06/13 12:38:04;;;;;;;4.12;2.05;;;;;;;17.10;70.12;99885.17;125171;1102;104156;-78
2021/06/13 12:40:37;;;;;;;2.22;1.70;;;;;;;17.09;70.72;99893.12;125195;1102;104162;-77
2021/06/13 12:43:10;;;;;;;3.07;1.70;;;;;;;17.03;70.45;99886.95;125134;1102;104268;-77
2021/06/13 12:45:42;;;;;;;1.77;1.67;;;;;;;16.97;70.44;99892.25;125044;1103;104278;-77
2021/06/13 12:48:14;;;;;;;2.83;1.57;;;;;;;16.95;70.78;99879.87;124983;1102;104329;-78
2021/06/13 12:50:46;;;;;;;2.00;1.70;;;;;;;16.95;70.72;99887.82;125181;1102;104289;-77
2021/06/13 12:53:17;;;;;;;2.40;1.57;;;;;;;17.00;71.15;99894.91;125176;1101;104294;-78
2021/06/13 12:55:51;;;;;;;3.95;1.80;;;;;;;17.00;70.98;99896.64;125201;1101;104161;-77
2021/06/13 12:58:23;;;;;;;2.33;1.80;;;;;;;16.97;70.58;99880.74;125117;1102;104254;-77
2021/06/13 13:00:56;;;;;;;2.53;2.00;;;;;;;16.98;70.84;99890.47;125201;1102;104139;-78
2021/06/13 13:03:27;;;;;;;2.80;1.77;;;;;;;17.00;70.89;99886.05;125108;1102;104149;-77
2021/06/13 13:06:08;;;;;;;2.53;2.13;;;;;;;17.09;71.02;99882.52;125161;1102;104169;-77
2021/06/13 13:08:44;;;;;;;3.37;2.10;;;;;;;17.16;71.27;99876.34;125007;1102;105351;-77
2021/06/13 13:11:25;;;;;;;3.87;2.00;;;;;;;17.19;71.69;99881.64;125225;1102;104268;-77
2021/06/13 13:13:59;;;;;;;2.20;2.00;;;;;;;17.15;71.14;99877.21;125163;1102;104321;-77
2021/06/13 13:16:33;;;;;;;2.50;2.30;;;;;;;17.09;71.31;99875.44;125227;1102;104194;-77
2021/06/13 13:19:06;;;;;;;2.93;1.90;;;;;;;17.06;71.30;99875.44;125209;1102;110498;-77
2021/06/13 13:21:40;;;;;;;2.90;2.20;;;;;;;16.98;71.59;99875.45;125188;1102;104159;-77
2021/06/13 13:24:29;;;;;;;1.87;1.67;;;;;;;16.97;71.50;99875.45;125192;1102;104350;-77
2021/06/13 13:27:05;;;;;;;3.17;2.10;;;;;;;16.89;71.25;99876.34;125100;1102;104319;-77
2021/06/13 13:29:46;;;;;;;1.70;1.40;;;;;;;16.79;71.80;99885.13;125132;1102;104270;-77
2021/06/13 13:32:18;;;;;;;2.00;1.87;;;;;;;16.70;71.89;99883.38;125172;1102;104240;-78
2021/06/13 13:34:49;;;;;;;1.70;1.60;;;;;;;16.64;71.90;99874.52;125233;1102;104291;-78
2021/06/13 13:37:20;;;;;;;3.13;1.60;;;;;;;16.66;71.97;99872.78;125170;1102;104278;-76
2021/06/13 13:40:11;;;;;;;3.67;1.77;;;;;;;16.69;71.40;99875.44;125159;1102;107062;-78
2021/06/13 13:42:42;;;;;;;1.70;1.60;;;;;;;16.76;72.25;99873.66;125194;1102;104312;-78
2021/06/13 13:45:25;;;;;;;1.50;1.40;;;;;;;16.78;72.08;99875.44;125208;1102;104268;-78
2021/06/13 13:48:06;;;;;;;3.57;1.80;;;;;;;16.77;72.07;99865.72;125173;1102;104147;-78
2021/06/13 13:50:43;;;;;;;2.43;2.10;;;;;;;16.86;72.40;99865.75;125189;1102;104277;-78
2021/06/13 13:53:27;;;;;;;2.40;2.00;;;;;;;17.01;72.23;99866.62;125225;1102;104297;-78
2021/06/13 13:56:01;;;;;;;3.10;2.20;;;;;;;17.14;72.25;99883.39;125229;1102;104246;-78
2021/06/13 13:58:32;;;;;;;2.57;1.60;;;;;;;17.15;72.41;99874.56;125196;1102;104268;-78
2021/06/13 14:01:03;;;;;;;3.70;1.50;;;;;;;17.09;72.27;99866.61;125242;1102;104172;-78
2021/06/13 14:03:37;;;;;;;1.57;1.47;;;;;;;17.06;72.08;99886.05;125134;1102;104162;-77
2021/06/13 14:06:08;;;;;;;1.40;1.30;;;;;;;17.05;71.44;99871.92;125188;1102;104205;-78
2021/06/13 14:08:43;;;;;;;1.30;1.10;;;;;;;17.04;71.68;99875.44;125172;1102;104146;-78
2021/06/13 14:11:18;;;;;;;1.40;1.17;;;;;;;17.02;71.45;99873.70;125222;1102;104268;-77
2021/06/13 14:13:48;;;;;;;2.47;2.00;;;;;;;16.94;71.83;99873.70;125259;1102;104142;-77
2021/06/13 14:16:19;;;;;;;2.80;1.80;;;;;;;16.85;71.99;99874.54;125260;1102;104290;-77
2021/06/13 14:18:50;;;;;;;2.83;1.90;;;;;;;16.72;71.84;99886.03;125116;1102;104450;-77
2021/06/13 14:21:22;;;;;;;2.50;2.00;;;;;;;16.61;71.79;99874.52;125241;1102;104219;-77
2021/06/13 14:23:52;;;;;;;4.03;2.90;;;;;;;16.57;71.52;99880.72;125293;1102;104235;-78
2021/06/13 14:26:23;;;;;;;4.67;3.00;;;;;;;16.51;71.44;99874.50;125224;1102;104191;-78
2021/06/13 14:28:54;;;;;;;2.87;2.40;;;;;;;16.47;71.96;99877.14;125149;1102;104823;-77
2021/06/13 14:31:24;;;;;;;1.90;1.70;;;;;;;16.45;71.82;99873.63;125172;1102;104165;-78
2021/06/13 14:33:56;;;;;;;1.70;1.60;;;;;;;16.40;72.22;99873.61;125192;1102;104165;-77
2021/06/13 14:36:27;;;;;;;2.10;1.87;;;;;;;16.34;71.70;99874.47;125233;1102;104233;-77
2021/06/13 14:38:58;;;;;;;2.83;1.40;;;;;;;16.27;72.31;99875.36;125172;1102;105585;-78
2021/06/13 14:41:28;;;;;;;1.20;1.10;;;;;;;16.24;72.37;99874.48;125239;1102;104172;-77
2021/06/13 14:43:59;;;;;;;1.50;1.40;;;;;;;16.21;71.92;99883.28;125193;1102;104172;-78
2021/06/13 14:46:29;;;;;;;1.40;1.30;;;;;;;16.17;72.46;99879.75;125174;1102;104178;-78
2021/06/13 14:49:00;;;;;;;1.13;1.03;;;;;;;16.16;72.28;99875.33;125124;1102;104238;-78
2021/06/13 14:51:31;;;;;;;1.53;1.20;;;;;;;16.18;72.58;99881.50;125196;1102;104239;-77
2021/06/13 14:54:01;;;;;;;1.60;1.30;;;;;;;16.14;72.32;99879.74;125214;1102;105282;-77
2021/06/13 14:56:32;;;;;;;1.83;1.43;;;;;;;16.11;72.54;99878.83;125159;1102;104239;-78
2021/06/13 14:59:02;;;;;;;1.80;1.50;;;;;;;16.09;72.78;99876.17;125155;1102;104245;-78
2021/06/13 15:01:33;;;;;;;2.43;1.70;;;;;;;16.08;72.64;99885.02;125230;1102;104134;-78
2021/06/13 15:04:05;;;;;;;2.47;1.90;;;;;;;16.08;73.06;99887.66;125286;1102;104261;-78
2021/06/13 15:06:35;;;;;;;2.10;1.90;;;;;;;16.08;72.21;99885.02;125224;1102;104188;-78
2021/06/13 15:09:06;;;;;;;2.20;2.00;;;;;;;16.09;72.27;99888.53;125229;1102;104265;-78
2021/06/13 15:11:37;;;;;;;2.70;2.10;;;;;;;16.11;72.92;99903.55;125195;1101;104168;-78
2021/06/13 15:14:07;;;;;;;5.83;2.23;;;;;;;16.12;72.71;99907.07;125218;1102;104190;-78
2021/06/13 15:16:38;;;;;;;2.67;2.10;;;;;;;16.12;72.34;99910.59;125304;1102;104236;-77
2021/06/13 15:19:09;;;;;;;5.97;2.50;;;;;;;16.11;72.25;99913.23;125298;1102;104389;-78
2021/06/13 15:21:40;;;;;;;6.10;2.80;;;;;;;16.10;73.21;99915.01;125221;1102;108114;-78
2021/06/13 15:24:11;;;;;;;3.50;2.10;;;;;;;16.08;73.02;99916.77;125199;1102;104178;-78
2021/06/13 15:26:42;;;;;;;6.40;2.53;;;;;;;16.06;73.00;99920.28;125204;1102;104245;-77
2021/06/13 15:29:13;;;;;;;6.63;2.90;;;;;;;16.07;73.37;99924.70;125241;1102;104174;-78
2021/06/13 15:31:45;;;;;;;3.30;2.70;;;;;;;16.09;73.07;99933.53;125226;1102;104143;-77
2021/06/13 15:34:17;;;;;;;5.60;3.00;;;;;;;16.09;73.09;99939.69;125195;1102;104181;-77
2021/06/13 15:36:49;;;;;;;4.87;2.87;;;;;;;16.10;73.32;99932.66;125198;1102;104169;-78
2021/06/13 15:39:20;;;;;;;6.27;2.93;;;;;;;16.10;72.55;99951.19;125148;1102;104191;-78
2021/06/13 15:41:52;;;;;;;5.47;2.80;;;;;;;16.06;73.42;99955.55;125180;1102;104197;-79
2021/06/13 15:44:23;;;;;;;4.77;3.10;;;;;;;16.06;72.52;99959.98;125263;1102;104143;-78
2021/06/13 15:46:55;;;;;;;5.27;2.97;;;;;;;16.07;73.43;99951.17;125237;1102;104200;-78
2021/06/13 15:49:26;;;;;;;4.17;2.90;;;;;;;16.06;72.50;99954.69;125204;1102;104238;-78
2021/06/13 15:51:57;;;;;;;3.77;2.77;;;;;;;16.03;72.90;99952.02;125158;1102;104149;-79
2021/06/13 15:54:31;;;;;;;4.83;3.00;;;;;;;16.00;73.34;99958.17;125190;1102;104153;-78
2021/06/13 15:57:02;;;;;;;6.30;3.07;;;;;;;15.99;73.14;99945.84;125238;1102;104249;-78
2021/06/13 15:59:36;;;;;;;4.13;2.70;;;;;;;15.98;72.97;99952.00;125152;1102;104582;-79
2021/06/13 16:02:07;;;;;;;5.07;3.00;;;;;;;15.99;72.68;99964.36;125159;1102;104242;-77
2021/06/13 16:04:38;;;;;;;4.00;2.90;;;;;;;15.96;72.52;99957.28;125182;1102;104176;-78
2021/06/13 16:07:08;;;;;;;5.80;3.20;;;;;;;15.94;72.54;99974.02;125189;1102;104198;-78
2021/06/13 16:09:41;;;;;;;5.90;3.00;;;;;;;15.92;72.63;99973.13;125269;1102;104255;-79
2021/06/13 16:12:14;;;;;;;5.20;2.97;;;;;;;15.91;73.03;99977.55;125158;1102;104143;-78
2021/06/13 16:14:46;;;;;;;2.98;2.58;;;;;;;15.90;72.85;99975.77;125241;1101;104226;-78
2021/06/13 16:17:16;;;;;;;3.80;2.90;;;;;;;15.88;72.53;99977.53;125187;1102;104159;-78
2021/06/13 16:19:47;;;;;;;3.20;2.73;;;;;;;15.87;73.20;99980.17;125221;1102;104149;-79
2021/06/13 16:22:18;;;;;;;6.47;3.40;;;;;;;15.86;72.47;99981.03;125187;1102;104155;-77
2021/06/13 16:24:49;;;;;;;7.80;3.20;;;;;;;15.87;72.94;99988.11;125158;1102;104779;-77
2021/06/13 16:27:19;;;;;;;5.77;3.17;;;;;;;15.86;73.48;99984.55;125196;1102;104198;-78
2021/06/13 16:29:50;;;;;;;5.53;3.10;;;;;;;15.87;72.80;99988.11;125172;1102;104153;-78
2021/06/13 16:32:21;;;;;;;6.33;3.30;;;;;;;15.84;73.16;99988.09;125162;1102;104140;-78
2021/06/13 16:34:51;;;;;;;6.50;3.30;;;;;;;15.84;72.98;99996.90;125232;1102;104303;-78
2021/06/13 16:37:24;;;;;;;5.87;3.57;;;;;;;15.84;73.24;100002.19;125191;1102;104149;-78
2021/06/13 16:39:54;;;;;;;4.73;3.40;;;;;;;15.84;73.46;100004.84;125209;1102;104271;-78
2021/06/13 16:42:26;;;;;;;7.63;3.20;;;;;;;15.84;72.67;100009.25;125133;1102;104354;-78
2021/06/13 16:44:57;;;;;;;6.13;3.40;;;;;;;15.84;73.30;100015.41;125217;1102;104149;-78
2021/06/13 16:47:27;;;;;;;7.63;3.57;;;;;;;15.84;72.88;100011.89;125305;1102;104359;-79
2021/06/13 16:49:59;;;;;;;8.53;3.60;;;;;;;15.83;72.68;100013.63;125162;1100;104152;-78
2021/06/13 16:52:29;;;;;;;6.97;3.67;;;;;;;15.83;72.69;100010.98;125151;1102;104149;-78
2021/06/13 16:55:00;;;;;;;7.43;3.70;;;;;;;15.82;73.19;100022.47;125181;1102;104236;-77